Time;durP1;ratioP1;P1;durP2;ratioP2;P2;SDS_P1;SDS_P2;PMS_P1;PMS_P2;Temp;Humidity;BMP_temperature;BMP_pressure;BME280_temperature;BME280_humidity;BME280_pressure;Samples;Min_cycle;Max_cycle;Signal;HPM_P1;HPM_P2
2023/09/06 00:00:26;;;;;;;1.63;1.10;;;19.90;91.60;;;;;;5071870;28;20025;-78
2023/09/06 00:02:52;;;;;;;1.40;1.00;;;19.90;91.60;;;;;;5071779;28;20066;-76
2023/09/06 00:05:18;;;;;;;1.40;0.90;;;19.90;91.70;;;;;;5071324;28;20413;-76
2023/09/06 00:07:44;;;;;;;1.33;0.90;;;19.90;91.70;;;;;;5071403;28;20039;-76
2023/09/06 00:10:10;;;;;;;1.65;1.02;;;19.80;91.70;;;;;;5071568;28;20082;-76
2023/09/06 00:12:35;;;;;;;1.23;0.90;;;19.90;91.80;;;;;;5071530;28;20017;-76
2023/09/06 00:15:01;;;;;;;1.33;1.00;;;19.80;91.80;;;;;;5070164;28;20021;-78
2023/09/06 00:17:27;;;;;;;2.72;1.10;;;19.90;91.90;;;;;;5070289;28;20036;-78
2023/09/06 00:19:52;;;;;;;1.38;1.00;;;19.80;91.90;;;;;;5070516;28;20232;-76
2023/09/06 00:22:20;;;;;;;2.13;1.00;;;19.80;91.80;;;;;;5074431;28;20508;-76
2023/09/06 00:24:45;;;;;;;1.42;0.95;;;19.80;91.90;;;;;;5075246;28;20024;-77
2023/09/06 00:27:11;;;;;;;1.52;1.00;;;19.80;91.90;;;;;;5075456;28;20050;-76
2023/09/06 00:29:36;;;;;;;1.40;1.00;;;19.80;91.80;;;;;;5074103;28;20017;-76
2023/09/06 00:32:02;;;;;;;1.65;1.08;;;19.80;91.90;;;;;;5074178;28;20115;-77
2023/09/06 00:34:28;;;;;;;1.30;1.10;;;19.80;91.90;;;;;;5073926;28;20111;-77
2023/09/06 00:36:54;;;;;;;2.25;1.10;;;19.80;91.90;;;;;;5075269;28;20389;-76
2023/09/06 00:39:20;;;;;;;1.20;0.90;;;19.80;91.80;;;;;;5074001;28;20081;-76
2023/09/06 00:41:45;;;;;;;1.23;0.95;;;19.90;91.80;;;;;;5075161;28;20036;-76
2023/09/06 00:44:11;;;;;;;1.58;1.08;;;19.90;91.90;;;;;;5073585;28;20437;-76
2023/09/06 00:46:37;;;;;;;1.35;0.88;;;19.90;91.80;;;;;;5074592;28;20037;-76
2023/09/06 00:49:04;;;;;;;1.30;0.98;;;19.90;91.80;;;;;;5074891;28;20465;-77
2023/09/06 00:51:30;;;;;;;2.47;1.15;;;19.80;91.80;;;;;;5073670;28;20021;-76
2023/09/06 00:54:00;;;;;;;1.20;1.00;;;19.90;91.80;;;;;;5074631;28;20020;-76
2023/09/06 00:56:26;;;;;;;1.60;0.80;;;19.90;91.80;;;;;;5074865;28;20028;-78
2023/09/06 00:58:52;;;;;;;1.58;1.00;;;19.90;91.80;;;;;;5074790;28;20025;-77
2023/09/06 01:01:18;;;;;;;1.42;0.90;;;19.90;91.70;;;;;;5074807;28;20044;-78
2023/09/06 01:03:44;;;;;;;1.40;0.90;;;19.90;91.80;;;;;;5073276;28;20024;-77
2023/09/06 01:06:16;;;;;;;1.35;0.98;;;19.90;91.80;;;;;;5074727;28;20039;-76
2023/09/06 01:08:46;;;;;;;1.70;1.10;;;19.80;91.80;;;;;;5074491;28;20515;-76
2023/09/06 01:11:18;;;;;;;1.23;0.90;;;19.80;91.90;;;;;;5074629;28;20033;-77
2023/09/06 01:13:45;;;;;;;1.10;0.80;;;19.90;91.90;;;;;;5074349;28;20020;-76
2023/09/06 01:16:11;;;;;;;1.52;1.13;;;19.90;91.80;;;;;;5074651;28;20021;-76
2023/09/06 01:18:37;;;;;;;1.95;1.00;;;19.80;91.80;;;;;;5074370;28;20021;-76
2023/09/06 01:21:10;;;;;;;2.13;1.00;;;19.80;91.90;;;;;;5073163;28;20499;-77
2023/09/06 01:23:41;;;;;;;1.45;0.90;;;19.80;91.90;;;;;;5072944;28;20384;-77
2023/09/06 01:26:07;;;;;;;1.20;1.00;;;19.80;91.90;;;;;;5073167;28;20024;-76
2023/09/06 01:28:33;;;;;;;1.58;1.10;;;19.80;91.90;;;;;;5072884;28;20481;-76
2023/09/06 01:31:00;;;;;;;1.65;1.00;;;19.80;91.90;;;;;;5074211;28;20060;-76
2023/09/06 01:33:28;;;;;;;1.48;0.88;;;19.80;91.90;;;;;;5073791;28;20017;-74
2023/09/06 01:35:53;;;;;;;1.75;1.00;;;19.80;92.00;;;;;;5072759;28;20024;-77
2023/09/06 01:38:19;;;;;;;1.67;1.00;;;19.80;91.90;;;;;;5074160;28;20021;-78
2023/09/06 01:40:45;;;;;;;1.90;0.90;;;19.80;92.00;;;;;;5072737;28;20020;-78
2023/09/06 01:43:11;;;;;;;1.63;1.00;;;19.90;92.00;;;;;;5074344;28;20031;-78
2023/09/06 01:45:38;;;;;;;1.30;1.00;;;19.90;91.90;;;;;;5073549;28;20095;-78
2023/09/06 01:48:04;;;;;;;1.15;0.88;;;19.90;91.90;;;;;;5073862;28;20104;-79
2023/09/06 01:50:30;;;;;;;2.03;1.08;;;19.90;91.90;;;;;;5072518;28;20162;-77
2023/09/06 01:52:55;;;;;;;1.23;0.90;;;19.90;91.90;;;;;;5074047;28;20016;-77
2023/09/06 01:55:21;;;;;;;1.20;0.90;;;19.90;91.90;;;;;;5072386;28;20074;-77
2023/09/06 01:57:47;;;;;;;1.30;0.90;;;19.90;91.90;;;;;;5073571;28;20021;-78
2023/09/06 02:00:46;;;;;;;1.35;1.00;;;19.90;91.90;;;;;;5073751;28;20385;-78
2023/09/06 02:03:06;;;;;;;1.10;0.80;;;19.80;91.80;;;;;;5072417;28;20031;-79
2023/09/06 02:05:33;;;;;;;0.85;0.80;;;19.90;91.90;;;;;;5071949;28;20054;-78
2023/09/06 02:07:59;;;;;;;1.10;0.90;;;19.80;91.90;;;;;;5072370;28;20507;-77
2023/09/06 02:10:25;;;;;;;1.35;1.00;;;19.80;92.00;;;;;;5073360;28;20024;-77
2023/09/06 02:12:51;;;;;;;1.42;1.00;;;19.80;91.90;;;;;;5073484;28;20101;-78
2023/09/06 02:15:16;;;;;;;1.02;0.80;;;19.80;92.00;;;;;;5073266;28;20024;-77
2023/09/06 02:17:43;;;;;;;1.55;1.00;;;19.80;92.00;;;;;;5073289;28;20029;-78
2023/09/06 02:20:17;;;;;;;1.20;0.90;;;19.80;92.00;;;;;;5071960;28;20489;-77
2023/09/06 02:22:44;;;;;;;1.48;0.90;;;19.80;92.00;;;;;;5073659;28;20031;-78
2023/09/06 02:25:10;;;;;;;1.67;1.05;;;19.80;92.00;;;;;;5073010;28;20531;-76
2023/09/06 02:27:36;;;;;;;1.10;0.90;;;19.80;92.00;;;;;;5073075;28;20021;-77
2023/09/06 02:30:05;;;;;;;1.38;1.00;;;19.80;92.00;;;;;;5073104;28;20020;-77
2023/09/06 02:32:31;;;;;;;1.50;0.98;;;19.80;92.10;;;;;;5071765;28;20512;-77
2023/09/06 02:34:57;;;;;;;1.50;1.00;;;19.80;92.10;;;;;;5072765;28;20087;-77
2023/09/06 02:37:23;;;;;;;2.08;1.17;;;19.80;92.00;;;;;;5072866;28;20028;-77
2023/09/06 02:39:48;;;;;;;2.08;1.13;;;19.80;92.10;;;;;;5072937;28;20032;-78
2023/09/06 02:42:14;;;;;;;2.08;1.10;;;19.80;92.00;;;;;;5072906;28;20029;-76
2023/09/06 02:44:41;;;;;;;1.63;1.08;;;19.80;92.00;;;;;;5070229;28;20024;-76
2023/09/06 02:47:11;;;;;;;1.15;0.80;;;19.80;92.00;;;;;;5069551;28;20032;-78
2023/09/06 02:49:41;;;;;;;1.20;1.00;;;19.80;92.00;;;;;;5070429;28;20078;-77
2023/09/06 02:52:12;;;;;;;1.60;1.10;;;19.90;92.00;;;;;;5071313;28;20025;-76
2023/09/06 02:54:42;;;;;;;2.20;1.33;;;19.90;92.00;;;;;;5072888;28;20036;-77
2023/09/06 02:57:10;;;;;;;1.48;1.10;;;19.90;92.00;;;;;;5072444;28;20078;-78
2023/09/06 02:59:36;;;;;;;1.58;1.00;;;19.80;92.00;;;;;;5072689;28;20074;-77
2023/09/06 03:02:05;;;;;;;1.15;0.98;;;19.80;92.00;;;;;;5072556;28;20037;-76
2023/09/06 03:04:35;;;;;;;1.13;0.90;;;19.80;92.00;;;;;;5072145;28;20370;-77
2023/09/06 03:07:02;;;;;;;1.50;1.00;;;19.80;92.10;;;;;;5071292;28;20035;-75
2023/09/06 03:09:28;;;;;;;1.70;1.00;;;19.80;92.10;;;;;;5072294;28;20108;-76
2023/09/06 03:11:54;;;;;;;1.17;0.80;;;19.80;92.10;;;;;;5072470;28;20028;-76
2023/09/06 03:14:22;;;;;;;1.42;1.10;;;19.80;92.10;;;;;;5070667;28;20016;-76
2023/09/06 03:16:53;;;;;;;1.13;1.00;;;19.80;92.10;;;;;;5071050;28;20107;-76
2023/09/06 03:19:18;;;;;;;1.35;0.98;;;19.80;92.10;;;;;;5070895;28;20258;-76
2023/09/06 03:21:44;;;;;;;1.17;0.90;;;19.80;92.20;;;;;;5072194;28;20032;-78
2023/09/06 03:24:12;;;;;;;1.23;0.95;;;19.80;92.20;;;;;;5070580;28;20400;-76
2023/09/06 03:26:44;;;;;;;1.60;0.93;;;19.80;92.10;;;;;;5070948;28;20557;-77
2023/09/06 03:29:10;;;;;;;1.42;1.00;;;19.80;92.20;;;;;;5072336;28;20025;-76
2023/09/06 03:31:42;;;;;;;1.88;1.10;;;19.70;92.10;;;;;;5072141;28;20020;-77
2023/09/06 03:34:13;;;;;;;1.10;0.90;;;19.70;92.10;;;;;;5071707;28;20099;-76
2023/09/06 03:36:40;;;;;;;1.40;1.00;;;19.80;92.20;;;;;;5071129;28;20021;-76
2023/09/06 03:39:07;;;;;;;1.13;0.88;;;19.80;92.10;;;;;;5071841;28;20025;-78
2023/09/06 03:41:32;;;;;;;1.75;1.05;;;19.80;92.10;;;;;;5070794;28;20536;-76
2023/09/06 03:43:58;;;;;;;1.65;0.90;;;19.80;92.00;;;;;;5070454;28;20155;-76
2023/09/06 03:46:25;;;;;;;1.52;1.00;;;19.90;92.00;;;;;;5070449;28;20431;-76
2023/09/06 03:48:50;;;;;;;1.30;0.90;;;19.80;92.00;;;;;;5070489;28;20396;-76
2023/09/06 03:51:17;;;;;;;1.55;1.10;;;19.80;92.00;;;;;;5071963;28;20096;-76
2023/09/06 03:53:42;;;;;;;1.45;0.90;;;19.80;91.90;;;;;;5070227;28;20024;-78
2023/09/06 03:56:10;;;;;;;1.90;1.13;;;19.80;92.00;;;;;;5070625;28;20124;-76
2023/09/06 03:58:36;;;;;;;1.10;0.90;;;19.80;92.00;;;;;;5070377;28;20024;-76
2023/09/06 04:01:01;;;;;;;1.00;0.90;;;19.80;92.10;;;;;;5071787;28;20099;-76
2023/09/06 04:03:27;;;;;;;1.58;0.90;;;19.80;92.10;;;;;;5070212;28;20047;-76
2023/09/06 04:05:52;;;;;;;1.10;1.00;;;19.80;92.10;;;;;;5071634;28;20037;-76
2023/09/06 04:08:18;;;;;;;1.15;1.00;;;19.80;92.10;;;;;;5071668;28;20032;-76
2023/09/06 04:10:44;;;;;;;1.10;1.00;;;19.70;92.10;;;;;;5071523;28;20021;-77
2023/09/06 04:13:12;;;;;;;1.77;1.00;;;19.70;92.10;;;;;;5071632;28;20078;-76
2023/09/06 04:15:39;;;;;;;1.73;1.00;;;19.80;92.20;;;;;;5070030;28;20492;-78
2023/09/06 04:18:07;;;;;;;1.40;1.00;;;19.80;92.20;;;;;;5071632;28;20029;-76
2023/09/06 04:20:38;;;;;;;1.20;1.00;;;19.70;92.20;;;;;;5070260;28;20029;-77
2023/09/06 04:23:05;;;;;;;;;;;19.70;92.20;;;;;;5072312;28;20052;-76
2023/09/06 04:25:41;;;;;;;1.00;0.90;;;19.70;92.20;;;;;;5069850;28;19904;-77
2023/09/06 04:28:07;;;;;;;1.30;1.05;;;19.80;92.20;;;;;;5071559;28;20021;-77
2023/09/06 04:30:35;;;;;;;1.33;0.90;;;19.80;92.20;;;;;;5070138;28;20032;-78
2023/09/06 04:33:03;;;;;;;1.20;0.90;;;19.80;92.20;;;;;;5070101;28;20021;-76
2023/09/06 04:35:48;;;;;;;1.15;0.90;;;19.80;92.20;;;;;;5071031;28;20025;-76
2023/09/06 04:38:19;;;;;;;1.10;1.00;;;19.80;92.10;;;;;;5071377;28;20024;-76
2023/09/06 04:40:46;;;;;;;1.92;1.00;;;19.80;92.10;;;;;;5071443;28;20029;-77
2023/09/06 04:43:13;;;;;;;1.38;1.00;;;19.80;92.10;;;;;;5071302;28;20030;-76
2023/09/06 04:45:39;;;;;;;1.45;1.00;;;19.80;92.00;;;;;;5070749;28;20024;-76
2023/09/06 04:48:12;;;;;;;1.15;1.00;;;19.80;92.00;;;;;;5068536;28;20377;-76
2023/09/06 04:50:38;;;;;;;2.13;1.05;;;19.80;92.00;;;;;;5056568;28;20027;-76
2023/09/06 04:53:04;;;;;;;1.27;1.00;;;19.80;92.00;;;;;;5071060;28;20477;-76
2023/09/06 04:55:35;;;;;;;1.40;1.00;;;19.80;92.00;;;;;;5070800;28;20032;-76
2023/09/06 04:58:00;;;;;;;1.25;1.00;;;19.80;92.10;;;;;;5071217;28;20527;-76
2023/09/06 05:00:35;;;;;;;1.40;0.95;;;19.80;92.10;;;;;;5071121;28;20115;-78
2023/09/06 05:03:01;;;;;;;1.85;1.02;;;19.80;92.10;;;;;;5064827;28;20505;-77
2023/09/06 05:05:27;;;;;;;1.33;0.93;;;19.80;92.10;;;;;;5062329;28;20032;-76
2023/09/06 05:07:53;;;;;;;0.80;0.70;;;19.80;92.10;;;;;;5071533;28;20020;-77
2023/09/06 05:10:18;;;;;;;1.63;1.10;;;19.80;92.10;;;;;;5074576;28;20078;-76
2023/09/06 05:12:45;;;;;;;1.15;0.90;;;19.80;92.10;;;;;;5074571;28;20413;-77
2023/09/06 05:15:15;;;;;;;1.35;1.00;;;19.80;92.10;;;;;;5073165;28;20321;-77
2023/09/06 05:17:40;;;;;;;1.50;1.00;;;19.80;92.10;;;;;;5073069;28;20032;-77
2023/09/06 05:20:29;;;;;;;1.15;0.90;;;19.80;92.10;;;;;;5074538;28;20496;-77
2023/09/06 05:22:56;;;;;;;1.95;1.00;;;19.80;92.10;;;;;;5073203;28;20055;-77
2023/09/06 05:25:21;;;;;;;1.40;1.00;;;19.80;92.10;;;;;;5072759;28;20506;-76
2023/09/06 05:27:47;;;;;;;1.50;0.90;;;19.80;92.10;;;;;;5072930;28;20166;-76
2023/09/06 05:30:14;;;;;;;1.58;1.00;;;19.80;92.10;;;;;;5073030;28;20028;-78
2023/09/06 05:32:39;;;;;;;1.42;1.02;;;19.90;92.10;;;;;;5074180;28;20446;-76
2023/09/06 05:35:05;;;;;;;1.20;1.00;;;19.80;92.00;;;;;;5074061;28;20016;-77
2023/09/06 05:37:31;;;;;;;1.35;0.98;;;19.90;91.90;;;;;;5074222;28;20025;-77
2023/09/06 05:39:56;;;;;;;1.30;1.00;;;19.90;91.90;;;;;;5074152;28;20023;-77
2023/09/06 05:42:22;;;;;;;1.55;1.08;;;19.90;91.80;;;;;;5074419;28;20039;-77
2023/09/06 05:44:47;;;;;;;1.30;1.00;;;20.00;91.80;;;;;;5073366;28;20104;-76
2023/09/06 05:47:13;;;;;;;1.27;0.93;;;20.00;91.80;;;;;;5073829;28;20082;-77
2023/09/06 05:49:38;;;;;;;1.73;1.10;;;20.00;91.80;;;;;;5073823;28;20029;-76
2023/09/06 05:52:04;;;;;;;2.10;1.10;;;20.00;91.70;;;;;;5072816;28;20547;-76
2023/09/06 05:54:30;;;;;;;1.10;0.90;;;20.00;91.70;;;;;;5073810;28;20025;-77
2023/09/06 05:56:56;;;;;;;1.33;0.90;;;20.00;91.70;;;;;;5073907;28;20020;-77
2023/09/06 05:59:22;;;;;;;1.40;1.00;;;20.00;91.70;;;;;;5073687;28;20033;-77
2023/09/06 06:01:48;;;;;;;1.08;0.98;;;20.00;91.70;;;;;;5073596;28;20025;-77
2023/09/06 06:04:13;;;;;;;1.60;0.93;;;20.00;91.60;;;;;;5073347;28;20103;-76
2023/09/06 06:06:41;;;;;;;1.70;1.25;;;20.00;91.60;;;;;;5073577;28;20025;-76
2023/09/06 06:09:11;;;;;;;1.50;1.10;;;20.00;91.60;;;;;;5073506;28;20070;-76
2023/09/06 06:11:40;;;;;;;1.58;0.98;;;20.00;91.60;;;;;;5073487;28;20112;-76
2023/09/06 06:14:05;;;;;;;1.27;1.02;;;20.00;91.60;;;;;;5072106;28;20591;-76
2023/09/06 06:16:31;;;;;;;1.52;1.00;;;20.00;91.60;;;;;;5072102;28;20033;-76
2023/09/06 06:18:56;;;;;;;1.20;1.00;;;20.00;91.50;;;;;;5072310;28;20024;-76
2023/09/06 06:21:30;;;;;;;1.33;0.90;;;20.10;91.50;;;;;;5073361;28;20363;-76
2023/09/06 06:23:56;;;;;;;1.50;1.00;;;20.10;91.50;;;;;;5073117;28;20027;-77
2023/09/06 06:26:21;;;;;;;1.17;0.90;;;20.10;91.40;;;;;;5071936;28;20020;-76
2023/09/06 06:28:49;;;;;;;2.22;1.10;;;20.10;91.50;;;;;;5073095;28;20380;-78
2023/09/06 06:31:14;;;;;;;1.35;1.00;;;20.10;91.40;;;;;;5073156;28;20025;-76
2023/09/06 06:33:40;;;;;;;1.05;0.95;;;20.20;91.30;;;;;;5072738;28;20546;-77
2023/09/06 06:36:05;;;;;;;1.20;1.00;;;20.20;91.20;;;;;;5073078;28;20021;-76
2023/09/06 06:38:32;;;;;;;1.33;1.00;;;20.30;91.20;;;;;;5072852;28;20384;-76
2023/09/06 06:40:57;;;;;;;1.25;1.00;;;20.30;91.10;;;;;;5071738;28;20021;-76
2023/09/06 06:43:23;;;;;;;1.25;1.00;;;20.30;91.00;;;;;;5072823;28;20029;-76
2023/09/06 06:45:52;;;;;;;1.45;1.00;;;20.30;91.00;;;;;;5072355;28;20029;-76
2023/09/06 06:48:18;;;;;;;1.45;0.90;;;20.30;91.00;;;;;;5071517;28;20118;-77
2023/09/06 06:50:43;;;;;;;1.77;1.00;;;20.40;91.00;;;;;;5071356;28;20485;-76
2023/09/06 06:53:09;;;;;;;1.65;1.20;;;20.30;91.00;;;;;;5071571;28;20035;-76
2023/09/06 06:55:34;;;;;;;1.60;0.90;;;20.40;91.00;;;;;;5072376;28;20047;-77
2023/09/06 06:58:00;;;;;;;2.67;1.00;;;20.40;91.00;;;;;;5072578;28;20070;-76
2023/09/06 07:00:25;;;;;;;1.17;0.95;;;20.40;91.00;;;;;;5071507;28;20028;-77
2023/09/06 07:02:51;;;;;;;1.58;1.00;;;20.40;91.00;;;;;;5071358;28;20481;-76
2023/09/06 07:05:16;;;;;;;1.30;0.93;;;20.40;90.90;;;;;;5072225;28;20043;-76
2023/09/06 07:07:42;;;;;;;1.23;1.00;;;20.40;90.90;;;;;;5072329;28;20501;-76
2023/09/06 07:10:08;;;;;;;1.17;1.00;;;20.50;90.90;;;;;;5072349;28;20047;-76
2023/09/06 07:12:33;;;;;;;1.90;1.00;;;20.50;90.90;;;;;;5072204;28;20452;-78
2023/09/06 07:14:59;;;;;;;2.05;1.00;;;20.50;90.80;;;;;;5070851;28;20131;-75
2023/09/06 07:17:24;;;;;;;1.65;1.10;;;20.50;90.80;;;;;;5070976;28;20021;-77
2023/09/06 07:19:50;;;;;;;1.45;1.00;;;20.50;90.80;;;;;;5070981;28;20103;-76
2023/09/06 07:22:15;;;;;;;1.40;1.10;;;20.60;90.80;;;;;;5072259;28;20464;-76
2023/09/06 07:24:41;;;;;;;3.72;1.13;;;20.60;90.70;;;;;;5070556;28;20020;-76
2023/09/06 07:27:06;;;;;;;2.03;1.33;;;20.60;90.70;;;;;;5072139;28;20031;-76
2023/09/06 07:29:32;;;;;;;2.05;1.20;;;20.60;90.70;;;;;;5071706;28;20384;-78
2023/09/06 07:31:58;;;;;;;1.63;1.20;;;20.70;90.60;;;;;;5072032;28;20037;-76
2023/09/06 07:34:24;;;;;;;1.88;1.27;;;20.70;90.50;;;;;;5070600;28;20070;-76
2023/09/06 07:36:49;;;;;;;2.35;1.42;;;20.70;90.40;;;;;;5070744;28;20046;-76
2023/09/06 07:39:15;;;;;;;1.90;1.27;;;20.80;90.40;;;;;;5072042;28;20074;-77
2023/09/06 07:41:40;;;;;;;1.98;1.33;;;20.80;90.30;;;;;;5071825;28;20500;-76
2023/09/06 07:44:06;;;;;;;1.65;1.23;;;20.80;90.30;;;;;;5072906;28;20086;-75
2023/09/06 07:46:32;;;;;;;1.55;1.15;;;20.90;90.30;;;;;;5071708;28;20099;-76
2023/09/06 07:48:57;;;;;;;2.03;1.30;;;20.90;90.20;;;;;;5071726;28;20024;-76
2023/09/06 07:51:23;;;;;;;2.30;1.50;;;20.90;90.30;;;;;;5070667;28;20017;-76
2023/09/06 07:53:49;;;;;;;2.08;1.48;;;20.90;90.30;;;;;;5070315;28;20397;-76
2023/09/06 07:56:14;;;;;;;2.20;1.40;;;20.90;90.30;;;;;;5070631;28;20024;-76
2023/09/06 07:58:40;;;;;;;2.08;1.30;;;20.90;90.30;;;;;;5070279;28;20074;-76
2023/09/06 08:01:05;;;;;;;1.95;1.40;;;20.90;90.30;;;;;;5071796;28;20035;-76
2023/09/06 08:03:33;;;;;;;1.67;1.20;;;20.90;90.20;;;;;;5071477;28;20046;-74
2023/09/06 08:05:59;;;;;;;1.95;1.23;;;21.00;90.30;;;;;;5070380;28;20032;-76
2023/09/06 08:08:25;;;;;;;2.78;1.58;;;21.00;90.30;;;;;;5071619;28;20032;-76
2023/09/06 08:10:50;;;;;;;1.90;1.30;;;21.00;90.30;;;;;;5071546;28;20509;-75
2023/09/06 08:13:16;;;;;;;1.98;1.17;;;21.00;90.20;;;;;;5071590;28;20091;-76
2023/09/06 08:15:41;;;;;;;2.17;1.35;;;21.00;90.20;;;;;;5071297;28;20477;-76
2023/09/06 08:18:08;;;;;;;2.33;1.35;;;21.00;90.20;;;;;;5071909;28;20024;-76
2023/09/06 08:20:34;;;;;;;1.70;1.20;;;21.00;90.10;;;;;;5070342;28;20056;-76
2023/09/06 08:22:59;;;;;;;2.20;1.55;;;21.00;90.10;;;;;;5071579;28;20574;-75
2023/09/06 08:25:25;;;;;;;1.90;1.20;;;21.10;90.10;;;;;;5071299;28;20030;-75
2023/09/06 08:27:51;;;;;;;1.88;1.27;;;21.10;90.10;;;;;;5070186;28;20082;-75
2023/09/06 08:30:18;;;;;;;2.00;1.20;;;21.10;90.00;;;;;;5070190;28;20029;-76
2023/09/06 08:32:46;;;;;;;2.40;1.30;;;21.20;90.00;;;;;;5070145;28;20016;-76
2023/09/06 08:35:14;;;;;;;2.30;1.30;;;21.20;90.00;;;;;;5070001;28;20021;-76
2023/09/06 08:37:40;;;;;;;1.58;1.17;;;21.20;89.90;;;;;;5071187;28;20388;-76
2023/09/06 08:40:06;;;;;;;1.73;1.10;;;21.20;89.80;;;;;;5071427;28;20536;-76
2023/09/06 08:42:33;;;;;;;2.10;1.40;;;21.30;89.70;;;;;;5072710;28;20028;-76
2023/09/06 08:45:01;;;;;;;2.10;1.30;;;21.30;89.70;;;;;;5073274;28;20032;-76
2023/09/06 08:47:28;;;;;;;1.95;1.23;;;21.30;89.80;;;;;;5073742;28;20050;-76
2023/09/06 08:49:54;;;;;;;1.67;1.15;;;21.30;89.80;;;;;;5075117;28;20028;-76
2023/09/06 08:52:20;;;;;;;1.48;1.10;;;21.30;89.70;;;;;;5075103;28;20393;-77
2023/09/06 08:54:48;;;;;;;2.30;1.23;;;21.30;89.80;;;;;;5074568;28;20096;-76
2023/09/06 08:57:14;;;;;;;1.85;1.13;;;21.30;89.80;;;;;;5074889;28;20028;-76
2023/09/06 08:59:41;;;;;;;1.95;1.20;;;21.30;89.80;;;;;;5074914;28;20013;-76
2023/09/06 09:02:10;;;;;;;1.38;1.02;;;21.30;89.80;;;;;;5074834;28;20428;-76
2023/09/06 09:04:41;;;;;;;1.58;1.15;;;21.30;89.70;;;;;;5074529;28;20035;-76
2023/09/06 09:07:11;;;;;;;;;;;21.30;89.80;;;;;;5075168;28;20519;-77
2023/09/06 09:10:09;;;;;;;2.00;1.17;;;21.30;89.80;;;;;;5073507;28;19912;-76
2023/09/06 09:12:36;;;;;;;1.67;1.10;;;21.40;89.90;;;;;;5074836;28;20024;-76
2023/09/06 09:15:03;;;;;;;1.85;1.20;;;21.30;89.90;;;;;;5073098;28;20107;-76
2023/09/06 09:17:29;;;;;;;1.25;1.00;;;21.30;89.90;;;;;;5074555;28;20027;-76
2023/09/06 09:20:00;;;;;;;1.23;1.05;;;21.30;90.00;;;;;;5073194;28;20024;-76
2023/09/06 09:22:31;;;;;;;1.33;1.10;;;21.40;90.00;;;;;;5074638;28;20028;-76
2023/09/06 09:25:04;;;;;;;1.00;0.90;;;21.40;90.00;;;;;;5072889;28;20109;-76
2023/09/06 09:27:33;;;;;;;1.83;1.08;;;21.40;90.00;;;;;;5074434;28;20028;-76
2023/09/06 09:30:01;;;;;;;1.40;1.00;;;21.40;90.00;;;;;;5072970;28;20039;-76
2023/09/06 09:32:27;;;;;;;1.52;1.05;;;21.50;90.00;;;;;;5074280;28;20424;-76
2023/09/06 09:34:53;;;;;;;1.23;0.93;;;21.50;89.90;;;;;;5073859;28;20017;-76
2023/09/06 09:37:19;;;;;;;1.48;1.10;;;21.50;89.80;;;;;;5072861;28;20024;-76
2023/09/06 09:39:47;;;;;;;1.45;1.15;;;21.50;89.70;;;;;;5072892;28;20482;-76
2023/09/06 09:42:13;;;;;;;1.92;1.02;;;21.50;89.80;;;;;;5073084;28;20021;-76
2023/09/06 09:44:40;;;;;;;1.50;1.00;;;21.50;89.90;;;;;;5073290;28;20074;-76
2023/09/06 09:47:14;;;;;;;1.63;0.90;;;21.50;90.10;;;;;;5073983;28;20032;-76
2023/09/06 09:49:41;;;;;;;1.38;0.90;;;21.50;90.00;;;;;;5073830;28;20099;-76
2023/09/06 09:52:13;;;;;;;1.30;1.00;;;21.50;90.00;;;;;;5072728;28;20024;-76
2023/09/06 09:54:45;;;;;;;1.45;1.10;;;21.50;90.00;;;;;;5073414;28;20117;-76
2023/09/06 09:57:12;;;;;;;1.23;0.90;;;21.50;90.10;;;;;;5072467;28;20032;-76
2023/09/06 09:59:38;;;;;;;1.73;1.20;;;21.50;90.10;;;;;;5072556;28;20028;-76
2023/09/06 10:02:06;;;;;;;1.20;0.98;;;21.50;90.10;;;;;;5072653;28;20397;-76
2023/09/06 10:04:39;;;;;;;1.63;1.05;;;21.50;90.10;;;;;;5073347;28;20043;-76
2023/09/06 10:07:07;;;;;;;1.42;1.08;;;21.50;90.10;;;;;;5073963;28;20613;-76
2023/09/06 10:09:37;;;;;;;1.35;1.00;;;21.50;90.00;;;;;;5073464;28;20029;-76
2023/09/06 10:12:07;;;;;;;1.52;1.10;;;21.50;90.10;;;;;;5073685;28;20019;-76
2023/09/06 10:14:33;;;;;;;1.55;1.20;;;21.50;90.10;;;;;;5071917;28;20017;-76
2023/09/06 10:17:00;;;;;;;1.27;0.90;;;21.50;90.10;;;;;;5072364;28;20257;-76
2023/09/06 10:19:27;;;;;;;1.45;1.10;;;21.50;90.10;;;;;;5072095;28;20501;-76
2023/09/06 10:21:53;;;;;;;1.08;0.90;;;21.60;90.10;;;;;;5072118;28;20039;-76
2023/09/06 10:24:21;;;;;;;1.00;0.90;;;21.60;90.00;;;;;;5071891;28;20497;-76
2023/09/06 10:26:48;;;;;;;1.67;1.10;;;21.60;90.20;;;;;;5071923;28;20489;-76
2023/09/06 10:29:19;;;;;;;1.10;0.95;;;21.60;90.00;;;;;;5073100;28;20473;-76
2023/09/06 10:31:50;;;;;;;1.40;0.90;;;21.60;89.90;;;;;;5073059;28;20027;-76
2023/09/06 10:34:16;;;;;;;1.15;0.88;;;21.60;89.90;;;;;;5072881;28;20017;-76
2023/09/06 10:36:54;;;;;;;1.60;1.00;;;21.60;89.70;;;;;;5071863;28;20036;-76
2023/09/06 10:39:21;;;;;;;1.55;1.00;;;21.60;89.80;;;;;;5072999;28;20082;-76
2023/09/06 10:42:09;;;;;;;1.45;1.10;;;21.60;90.00;;;;;;5073184;28;20131;-76
2023/09/06 10:44:53;;;;;;;1.60;1.10;;;21.60;90.00;;;;;;5071058;28;20067;-76
2023/09/06 10:47:24;;;;;;;1.00;0.90;;;21.60;90.10;;;;;;5072775;28;20025;-76
2023/09/06 10:50:09;;;;;;;;;;;21.60;90.10;;;;;;5073179;28;20055;-76
2023/09/06 10:52:46;;;;;;;1.40;1.00;;;21.50;90.10;;;;;;5072690;28;19904;-76
2023/09/06 10:55:20;;;;;;;1.17;0.90;;;21.60;90.20;;;;;;5072676;28;20402;-76
2023/09/06 10:57:48;;;;;;;1.65;1.05;;;21.60;90.20;;;;;;5072525;28;20050;-76
2023/09/06 11:00:18;;;;;;;1.20;0.80;;;21.50;90.20;;;;;;5072668;28;20392;-76
2023/09/06 11:02:44;;;;;;;1.30;1.00;;;21.50;90.20;;;;;;5071245;28;20622;-76
2023/09/06 11:05:15;;;;;;;1.05;0.80;;;21.50;90.20;;;;;;5070427;28;20119;-76
2023/09/06 11:07:45;;;;;;;1.20;1.00;;;21.50;90.20;;;;;;5071097;28;20028;-76
2023/09/06 11:10:11;;;;;;;1.42;1.05;;;21.50;90.20;;;;;;5072440;28;20103;-76
2023/09/06 11:12:38;;;;;;;1.27;0.90;;;21.50;90.30;;;;;;5071092;28;20020;-76
2023/09/06 11:15:05;;;;;;;1.17;1.00;;;21.50;90.30;;;;;;5072206;28;20485;-76
2023/09/06 11:17:31;;;;;;;1.35;1.00;;;21.50;90.30;;;;;;5070892;28;20111;-76
2023/09/06 11:20:13;;;;;;;1.20;0.95;;;21.50;90.30;;;;;;5072461;28;20029;-77
2023/09/06 11:22:58;;;;;;;1.20;0.93;;;21.50;90.20;;;;;;5071014;28;20044;-77
2023/09/06 11:25:25;;;;;;;1.13;0.90;;;21.50;90.20;;;;;;5072081;28;20052;-76
2023/09/06 11:27:51;;;;;;;1.63;0.95;;;21.60;90.20;;;;;;5072060;28;20032;-76
2023/09/06 11:30:26;;;;;;;1.08;0.90;;;21.60;90.20;;;;;;5070902;28;20078;-76
2023/09/06 11:32:53;;;;;;;1.23;0.90;;;21.50;90.10;;;;;;5072094;28;20017;-76
2023/09/06 11:35:22;;;;;;;1.50;1.05;;;21.60;90.20;;;;;;5070716;28;20051;-76
2023/09/06 11:37:50;;;;;;;1.60;1.00;;;21.50;90.20;;;;;;5070609;28;20362;-76
2023/09/06 11:40:20;;;;;;;4.95;1.27;;;21.50;90.30;;;;;;5072043;28;20025;-76
2023/09/06 11:42:52;;;;;;;5.72;1.67;;;21.50;90.40;;;;;;5070688;28;20543;-76
2023/09/06 11:45:20;;;;;;;6.90;1.70;;;21.50;90.50;;;;;;5071372;28;20025;-76
2023/09/06 11:47:51;;;;;;;10.55;1.85;;;21.50;90.20;;;;;;5070583;28;20531;-76
2023/09/06 11:50:21;;;;;;;5.80;1.60;;;21.40;90.20;;;;;;5070618;28;20032;-75
2023/09/06 11:52:53;;;;;;;4.88;1.77;;;21.40;90.20;;;;;;5070568;28;20020;-76
2023/09/06 11:55:20;;;;;;;6.07;1.80;;;21.40;90.20;;;;;;5071610;28;20025;-76
2023/09/06 11:57:51;;;;;;;3.28;1.40;;;21.40;90.20;;;;;;5071685;28;20031;-76
2023/09/06 12:00:45;;;;;;;4.60;1.75;;;21.40;90.20;;;;;;5070865;28;20056;-75
2023/09/06 12:03:20;;;;;;;4.38;1.88;;;21.40;90.20;;;;;;5071744;28;20078;-76
2023/09/06 12:05:48;;;;;;;3.60;1.55;;;21.40;90.20;;;;;;5070246;28;20119;-76
2023/09/06 12:08:23;;;;;;;5.78;1.73;;;21.40;90.20;;;;;;5071673;28;20027;-77
2023/09/06 12:11:05;;;;;;;4.28;1.70;;;21.40;90.20;;;;;;5071710;28;20025;-76
2023/09/06 12:13:31;;;;;;;3.97;1.75;;;21.40;90.20;;;;;;5070178;28;20492;-74
2023/09/06 12:15:58;;;;;;;3.17;1.60;;;21.50;90.20;;;;;;5071692;28;20420;-76
2023/09/06 12:18:28;;;;;;;4.72;1.50;;;21.50;90.20;;;;;;5074738;28;20066;-76
2023/09/06 12:20:54;;;;;;;2.65;1.40;;;21.50;90.10;;;;;;5075684;28;20017;-76
2023/09/06 12:23:26;;;;;;;3.17;1.45;;;21.50;90.10;;;;;;5074569;28;20167;-76
2023/09/06 12:25:51;;;;;;;3.50;1.33;;;21.50;90.10;;;;;;5074236;28;20024;-76
2023/09/06 12:28:17;;;;;;;3.20;1.50;;;21.40;90.20;;;;;;5075596;28;20370;-77
2023/09/06 12:30:44;;;;;;;3.88;1.55;;;21.40;90.20;;;;;;5074138;28;20028;-77
2023/09/06 12:33:09;;;;;;;2.67;1.55;;;21.40;90.30;;;;;;5074242;28;20486;-76
2023/09/06 12:35:38;;;;;;;3.15;1.50;;;21.40;90.30;;;;;;5075166;28;20052;-76
2023/09/06 12:38:06;;;;;;;2.78;1.50;;;21.40;90.40;;;;;;5075431;28;20013;-76
2023/09/06 12:40:31;;;;;;;3.58;1.60;;;21.40;90.40;;;;;;5073989;28;20021;-76
2023/09/06 12:42:57;;;;;;;3.20;1.60;;;21.30;90.40;;;;;;5075217;28;20028;-76
2023/09/06 12:45:27;;;;;;;2.90;1.52;;;21.30;90.40;;;;;;5073297;28;20561;-76
2023/09/06 12:47:54;;;;;;;4.10;1.80;;;21.30;90.40;;;;;;5073875;28;20033;-76
2023/09/06 12:50:20;;;;;;;2.88;1.60;;;21.30;90.50;;;;;;5075101;28;20028;-76